Longboat Key, FL

2:46 AM EST on January 31, 2015 (GMT -0500)
LBK | Change Station
CLOSE
Current Station
Personal Weather Station
Location: Longboat Key, IL
Elevation: 1 ft
Nearby Weather Stations

Elev 1 ft 27.39 °N, 82.64 °W | Updated 1 second ago

Clear
Clear
55.9 °F
Feels Like 55.9 °F
N
11.4
Wind Variable Wind from NE
Gusts 20.6 mph

Today
High -- | Low -- °F
--% Chance of Precip.
Yesterday
High -- | Low -- °F
Precip. -- in
7:17 AM 6:10 PM
Waxing Gibbous, 88% visible
Pressure 30.22 in
Visibility 10.0 miles
Clouds Clear
Dew Point 45 °F
Humidity 67%
Rainfall 0.00 in
Snow Depth Not available.
UV 0 out of 12
Pollen 9.20 out of 12
Air Quality Not available.
Flu Activity Not available.
METAR KSRQ 310653Z AUTO 03006KT 10SM CLR 11/05 A3022 RMK AO2 SLP232 T01110050

More Conditions Fewer Conditions

Pressure 30.22 in
Visibility 10.0 miles
Clouds Clear
Dew Point 45 °F
Humidity 67%
Rainfall 0.00 in
Snow Depth Not available.
UV 0 out of 12
Pollen 9.20 out of 12
Air Quality Not available.
Flu Activity Not available.
METAR KSRQ 310653Z AUTO 03006KT 10SM CLR 11/05 A3022 RMK AO2 SLP232 T01110050

More Conditions Fewer Conditions

10-Day Weather Forecast

Almanac

Astronomy

Jan. 31, 2015 Rise Set
Actual Time
Civil Twilight
Nautical Twilight
Astronomical Twilight
Moon
Length of Visible Light
Length of Day
Tomorrow will be .
, % of the Moon is Illuminated

Today's Extremes

State Highs State Lows

Community

WunderPhotos

Upload Photos

1,792,014 photos uploaded!

WunderBlogs® & News

Nearby

Air Quality

  Air Quality AQ Index Pollutant
Not available.

Snow Depth

Station Depth Elevation

Earthquake Activity

City Distance Mag. Time & Date
Minimum magnitude displayed is 2.5.

Coastal Water Temperatures

Place Temperature

Nearby Weather Stations